Data for 09/14/2005

Time Sea-Level Adjusted Pressure Absolute Pressure Temperature Relative Humidity Dew Point   
(mb) (inHg) (mb) (inHg) (C) (F) (%) (C) (F)
00:05 1019 30.09 848 25.04 7.8 46 55 -0.7 30.8
00:10 1019 30.09 848 25.04 7.7 45.9 55 -0.7 30.7
00:15 1019 30.09 848 25.04 7.8 46 55 -0.6 30.9
00:20 1019 30.09 848 25.04 7.6 45.6 57 -0.5 31.1
00:25 1019 30.09 848 25.04 7.5 45.6 56 -0.7 30.8
00:30 1019 30.09 848 25.04 7.6 45.7 55 -0.8 30.5
00:35 1019 30.09 848 25.04 7.6 45.8 55 -0.7 30.7
00:40 1019 30.09 848 25.04 7.3 45.1 58 -0.4 31.4
00:45 1019 30.09 848 25.04 6.7 44.1 59 -0.7 30.8
00:50 1019 30.09 848 25.04 6.7 44 58 -1.1 30.1
00:55 1019 30.09 848 25.04 6.8 44.3 59 -0.7 30.7
01:00 1019 30.09 848 25.04 6.9 44.4 58 -0.9 30.4
01:05 1019 30.09 848 25.04 6.8 44.2 59 -0.6 30.9
01:10 1018 30.06 848 25.04 6.6 43.9 58 -1 30.3
01:15 1019 30.09 848 25.04 6.7 44.1 58 -1 30.2
01:20 1019 30.09 848 25.04 6.8 44.2 57 -1.1 30.1
01:25 1019 30.09 848 25.04 6.8 44.2 58 -0.8 30.5
01:30 1019 30.09 848 25.04 6.5 43.8 59 -0.9 30.3
01:35 1019 30.09 848 25.04 6.5 43.7 59 -1 30.2
01:40 1019 30.09 848 25.04 6.7 44.1 58 -0.8 30.5
01:45 1018 30.06 848 25.04 6.8 44.3 59 -0.7 30.8
01:50 1019 30.09 848 25.04 6.7 44 58 -0.9 30.4
01:55 1018 30.06 848 25.04 6.8 44.2 57 -1.2 29.9
02:00 1018 30.06 848 25.04 6.9 44.5 57 -0.9 30.3
02:05 1018 30.06 848 25.04 6.7 44.1 59 -0.8 30.6
02:10 1018 30.06 848 25.04 6.6 44 59 -0.8 30.6
02:15 1018 30.06 848 25.04 6.4 43.5 60 -0.7 30.7
02:20 1018 30.06 848 25.04 6 42.8 61 -0.8 30.5
02:25 1018 30.06 848 25.04 5.8 42.4 62 -0.8 30.5
02:30 1018 30.06 847 25.01 5.7 42.2 62 -1 30.2
02:35 1018 30.06 847 25.01 5.7 42.2 63 -0.9 30.3
02:40 1018 30.06 847 25.01 5.6 42 63 -1 30.2
02:45 1018 30.06 847 25.01 5.5 41.8 64 -0.9 30.4
02:50 1018 30.06 848 25.04 5.6 42 63 -0.8 30.5
02:55 1018 30.06 848 25.04 5.3 41.6 64 -0.9 30.4
03:00 1018 30.06 848 25.04 4.8 40.6 66 -1 30.2
03:05 1018 30.06 848 25.04 4.5 40.1 66 -1.4 29.6
03:10 1018 30.06 848 25.04 4.4 40 67 -1.1 30.1
03:15 1018 30.06 848 25.04 4.7 40.5 66 -1.2 29.9
03:20 1018 30.06 847 25.01 4.8 40.7 65 -1.2 29.8
03:25 1018 30.06 847 25.01 5.2 41.3 63 -1.2 29.9
03:30 1018 30.06 847 25.01 5.3 41.6 64 -1 30.2
03:35 1018 30.06 847 25.01 5.2 41.3 64 -1 30.2
03:40 1018 30.06 847 25.01 5 41 65 -0.9 30.3
03:45 1018 30.06 847 25.01 4.6 40.3 66 -1.1 30
03:50 1018 30.06 847 25.01 4.5 40.2 67 -1 30.2
03:55 1018 30.06 847 25.01 4.5 40.1 66 -1.4 29.5
04:00 1018 30.06 847 25.01 4.7 40.5 65 -1.3 29.6
04:05 1018 30.06 847 25.01 5 41 63 -1.3 29.6
04:10 1018 30.06 847 25.01 5.3 41.6 61 -1.6 29.1
04:15 1018 30.06 847 25.01 5.8 42.4 58 -1.8 28.8
04:20 1018 30.06 847 25.01 6.4 43.4 56 -1.7 29
04:25 1018 30.06 847 25.01 6.5 43.7 57 -1.3 29.7
04:30 1018 30.06 847 25.01 6 42.8 59 -1.3 29.6
04:35 1018 30.06 847 25.01 5.8 42.4 60 -1.4 29.4
04:40 1018 30.06 847 25.01 5.7 42.3 60 -1.5 29.3
04:45 1018 30.06 847 25.01 5.5 41.9 62 -1.2 29.9
04:50 1018 30.06 848 25.04 5.2 41.3 62 -1.5 29.2
04:55 1018 30.06 848 25.04 5.4 41.8 61 -1.4 29.5
05:00 1018 30.06 848 25.04 5.3 41.6 61 -1.4 29.4
05:05 1018 30.06 848 25.04 5.5 41.8 60 -1.7 28.9
05:10 1018 30.06 848 25.04 6.1 43 57 -1.7 28.9
05:15 1018 30.06 848 25.04 6.2 43.2 57 -1.6 29.1
05:20 1018 30.06 848 25.04 6.3 43.4 58 -1.3 29.6
05:25 1018 30.06 848 25.04 6.1 42.9 60 -1.1 30
05:30 1018 30.06 848 25.04 5.7 42.3 61 -1.1 30
05:35 1018 30.06 848 25.04 5.4 41.7 63 -1 30.2
05:40 1018 30.06 848 25.04 5 41 65 -1 30.2
05:45 1018 30.06 848 25.04 5 40.9 65 -1.2 29.9
05:50 1018 30.06 848 25.04 4.8 40.7 66 -1 30.1
05:55 1018 30.06 848 25.04 4.8 40.7 65 -1.1 30
06:00 1018 30.06 848 25.04 5 41.1 66 -0.8 30.6
06:05 1018 30.06 848 25.04 5.1 41.2 66 -0.6 30.9
06:10 1018 30.06 848 25.04 5 41 67 -0.6 30.9
06:15 1018 30.06 848 25.04 5.1 41.1 66 -0.8 30.6
06:20 1018 30.06 848 25.04 4.9 40.8 67 -0.7 30.8
06:25 1018 30.06 848 25.04 4.5 40.1 68 -0.9 30.5
06:30 1018 30.06 848 25.04 4.6 40.2 69 -0.7 30.8
06:35 1018 30.06 848 25.04 4.6 40.3 67 -1 30.2
06:40 1018 30.06 848 25.04 4.9 40.9 65 -1 30.1
06:45 1018 30.06 848 25.04 5.2 41.4 64 -1 30.1
06:50 1019 30.09 848 25.04 5.4 41.6 64 -1 30.2
06:55 1019 30.09 848 25.04 5.3 41.5 65 -0.8 30.5
07:00 1018 30.06 848 25.04 5 41 66 -0.8 30.5
07:05 1018 30.06 848 25.04 5.2 41.3 64 -1 30.2
07:10 1018 30.06 848 25.04 5.5 41.8 62 -1.3 29.6
07:15 1019 30.09 848 25.04 5.4 41.8 62 -1.2 29.8
07:20 1018 30.06 848 25.04 5.4 41.8 61 -1.4 29.5
07:25 1019 30.09 848 25.04 5.6 42.1 60 -1.4 29.4
07:30 1019 30.09 848 25.04 5.6 42.1 62 -1 30.2
07:35 1019 30.09 848 25.04 5.5 41.9 61 -1.3 29.6
07:40 1019 30.09 848 25.04 5.7 42.2 61 -1.2 29.8
07:45 1019 30.09 848 25.04 5.5 41.9 63 -0.9 30.3
07:50 1019 30.09 848 25.04 5.8 42.4 62 -0.9 30.4
07:55 1019 30.09 848 25.04 5.8 42.4 64 -0.4 31.3
08:00 1019 30.09 848 25.04 5.5 41.9 65 -0.5 31.1
08:05 1019 30.09 848 25.04 5.5 41.8 63 -1 30.1
08:10 1019 30.09 848 25.04 5.5 41.9 63 -0.9 30.3
08:15 1019 30.09 848 25.04 5.6 42 64 -0.7 30.7
08:20 1019 30.09 848 25.04 5.7 42.3 64 -0.6 30.9
08:25 1019 30.09 848 25.04 5.7 42.3 64 -0.5 31
08:30 1019 30.09 848 25.04 6.1 43 64 -0.3 31.5
08:35 1019 30.09 848 25.04 6.2 43.2 64 -0.1 31.8
08:40 1019 30.09 848 25.04 6.3 43.4 64 -0 31.9
08:45 1019 30.09 848 25.04 6.3 43.4 64 0.1 32.2
08:50 1019 30.09 848 25.04 6.3 43.3 66 0.5 32.8
08:55 1019 30.09 848 25.04 6.2 43.1 66 0.4 32.7
09:00 1019 30.09 848 25.04 6.4 43.5 67 0.6 33.1
09:05 1019 30.09 848 25.04 7.1 44.8 63 0.6 33
09:10 1019 30.09 848 25.04 8 46.4 60 0.7 33.3
09:15 1019 30.09 848 25.04 8.9 47.9 57 0.9 33.6
09:20 1019 30.09 848 25.04 8.9 48 58 1 33.8
09:25 1019 30.09 848 25.04 9.7 49.5 53 0.6 33
09:30 1019 30.09 848 25.04 10.6 51 48 -0.1 31.9
09:35 1019 30.09 848 25.04 11.2 52.2 44 -0.7 30.8
09:40 1019 30.09 848 25.04 11.9 53.3 42 -0.6 31
09:45 1019 30.09 848 25.04 12.6 54.6 39 -0.9 30.4
09:50 1019 30.09 849 25.07 12 53.6 41 -0.8 30.6
09:55 1019 30.09 849 25.07 12 53.5 42 -0.4 31.2
10:00 1019 30.09 849 25.07 11.5 52.7 44 -0.2 31.6
10:05 1019 30.09 849 25.07 11.8 53.2 43 -0.4 31.2
10:10 1019 30.09 849 25.07 12.1 53.7 42 -0.5 31.1
10:15 1019 30.09 849 25.07 12.3 54.1 42 -0.4 31.4
10:20 1019 30.09 849 25.07 12.1 53.7 44 0.1 32.1
10:25 1019 30.09 849 25.07 11.5 52.6 45 -0.1 31.8
10:30 1019 30.09 849 25.07 11.3 52.4 45 -0.2 31.7
10:35 1019 30.09 849 25.07 11 51.8 46 0 32
10:40 1019 30.09 849 25.07 10.9 51.5 47 0.2 32.3
10:45 1019 30.09 849 25.07 10.9 51.5 46 -0.3 31.5
10:50 1019 30.09 849 25.07 10.9 51.5 46 -0.2 31.7
10:55 1019 30.09 848 25.04 11.2 52.1 45 -0.3 31.4
11:00 1019 30.09 848 25.04 11.3 52.3 45 -0.1 31.8
11:05 1019 30.09 848 25.04 11.7 53 45 0.2 32.3
11:10 1019 30.09 848 25.04 11.8 53.2 45 0.3 32.5
11:15 1019 30.09 848 25.04 11.8 53.3 44 0 32
11:20 1019 30.09 848 25.04 12 53.6 43 0 32
11:25 1019 30.09 849 25.07 12.4 54.4 42 0.1 32.1
11:30 1019 30.09 849 25.07 12.5 54.5 42 -0.1 31.8
11:35 1019 30.09 849 25.07 12.4 54.3 41 -0.5 31.1
11:40 1019 30.09 848 25.04 12.2 54 41 -0.7 30.7
11:45 1019 30.09 848 25.04 12.4 54.3 41 -0.5 31.1
11:50 1019 30.09 848 25.04 12.9 55.2 39 -0.8 30.6
11:55 1019 30.09 848 25.04 13.1 55.5 37 -1.2 29.9
12:00 1019 30.09 848 25.04 13.4 56.1 35 -1.5 29.2
12:05 1019 30.09 848 25.04 13.4 56.1 34 -1.9 28.6
12:10 1019 30.09 848 25.04 13.7 56.6 35 -1.6 29.1
12:15 1019 30.09 848 25.04 14.7 58.5 32 -1.8 28.8
12:20 1019 30.09 848 25.04 15.9 60.6 30 -1.5 29.4
12:25 1019 30.09 848 25.04 16.2 61.2 30 -1.3 29.6
12:30 1019 30.09 848 25.04 16.5 61.8 29 -1.4 29.5
12:35 1019 30.09 848 25.04 15.7 60.2 31 -1.2 29.9
12:40 1019 30.09 848 25.04 15.8 60.4 31 -1.4 29.6
12:45 1019 30.09 848 25.04 16.5 61.8 29 -1.6 29.2
12:50 1019 30.09 848 25.04 16.3 61.3 33 0.2 32.3
12:55 1019 30.09 848 25.04 15.6 60.1 31 -1.5 29.3
13:00 1019 30.09 848 25.04 15.5 59.9 31 -1.7 29
13:05 1019 30.09 848 25.04 15.4 59.7 33 -0.8 30.5
13:10 1019 30.09 848 25.04 16.5 61.6 28 -1.8 28.8
13:15 1019 30.09 848 25.04 16.1 60.9 30 -1.5 29.3
13:20 1018 30.06 848 25.04 15.8 60.4 31 -1.4 29.5
13:25 1018 30.06 848 25.04 15.9 60.6 30 -1.7 29
13:30 1018 30.06 848 25.04 16.5 61.7 29 -1.5 29.3
13:35 1018 30.06 847 25.01 17.6 63.7 28 -1 30.3
13:40 1018 30.06 847 25.01 18 64.3 28 -0.8 30.5
13:45 1018 30.06 847 25.01 18.1 64.5 28 -0.7 30.7
13:50 1018 30.06 847 25.01 18.2 64.7 27 -0.7 30.7
13:55 1018 30.06 847 25.01 17.7 63.9 29 -0.3 31.4
14:00 1018 30.06 847 25.01 17.6 63.7 29 -0.4 31.3
14:05 1018 30.06 847 25.01 18 64.5 28 -0.6 30.9
14:10 1018 30.06 847 25.01 17.5 63.4 30 -0.1 31.8
14:15 1018 30.06 847 25.01 16.9 62.4 30 -0.6 30.9
14:20 1018 30.06 847 25.01 16.9 62.3 30 -0.7 30.8
14:25 1018 30.06 847 25.01 17.3 63.1 29 -0.7 30.7
14:30 1018 30.06 847 25.01 17.8 64.1 28 -1 30.3
14:35 1018 30.06 847 25.01 17.7 63.9 29 -0.5 31.1
14:40 1018 30.06 847 25.01 18.5 65.3 27 -0.7 30.7
14:45 1018 30.06 847 25.01 18.6 65.5 26 -1 30.3
14:50 1018 30.06 847 25.01 18.5 65.3 27 -0.8 30.6
14:55 1018 30.06 847 25.01 18.3 65 27 -0.9 30.4
15:00 1018 30.06 847 25.01 17.7 63.9 29 -0.4 31.3
15:05 1018 30.06 847 25.01 18 64.4 28 -0.6 30.8
15:10 1018 30.06 847 25.01 18.6 65.4 26 -0.9 30.4
15:15 1018 30.06 847 25.01 19.2 66.5 26 -0.6 30.9
15:20 1017 30.03 847 25.01 19 66.2 27 -0.3 31.4
15:25 1017 30.03 847 25.01 18.7 65.7 27 -0.5 31.1
15:30 1017 30.03 847 25.01 19.1 66.3 27 -0.4 31.3
15:35 1017 30.03 847 25.01 18.9 66 26 -0.6 30.8
15:40 1017 30.03 847 25.01 19.3 66.7 26 -0.7 30.7
15:45 1017 30.03 847 25.01 19 66.3 27 -0.3 31.5
15:50 1017 30.03 846 24.98 18.2 64.8 27 -1 30.2
15:55 1017 30.03 847 25.01 18.9 66 26 -0.7 30.8
16:00 1017 30.03 846 24.98 19.2 66.5 26 -0.5 31
16:05 1017 30.03 846 24.98 19.4 67 26 -0.5 31.2
16:10 1017 30.03 846 24.98 19.8 67.6 26 -0.2 31.6
16:15 1017 30.03 846 24.98 19.6 67.2 25 -0.7 30.8
16:20 1017 30.03 846 24.98 19.6 67.2 25 -0.8 30.6
16:25 1017 30.03 846 24.98 19.5 67.1 26 -0.3 31.5
16:30 1017 30.03 846 24.98 19.6 67.3 25 -0.8 30.6
16:35 1017 30.03 846 24.98 19.8 67.7 25 -0.6 31
16:40 1017 30.03 846 24.98 20 68 25 -0.7 30.7
16:45 1017 30.03 846 24.98 19.8 67.6 25 -0.5 31.1
16:50 1017 30.03 846 24.98 19 66.3 27 -0.3 31.4
16:55 1017 30.03 846 24.98 18.2 64.8 28 -0.5 31.1
17:00 1017 30.03 846 24.98 18.4 65.2 27 -0.7 30.8
17:05 1017 30.03 846 24.98 18.5 65.3 27 -0.8 30.6
17:10 1017 30.03 846 24.98 18.7 65.7 26 -0.9 30.4
17:15 1017 30.03 846 24.98 18.9 65.9 27 -0.6 31
17:20 1017 30.03 846 24.98 18.6 65.4 28 -0.1 31.8
17:25 1017 30.03 846 24.98 18.6 65.5 27 -0.8 30.6
17:30 1017 30.03 846 24.98 19.2 66.6 26 -0.6 31
17:35 1017 30.03 846 24.98 18.8 65.8 26 -0.8 30.6
17:40 1017 30.03 846 24.98 18.7 65.6 27 -0.6 30.8
17:45 1017 30.03 846 24.98 18.8 65.8 26 -0.9 30.4
17:50 1017 30.03 846 24.98 19.4 67 26 -0.6 31
17:55 1017 30.03 846 24.98 19.8 67.7 25 -0.4 31.2
18:00 1017 30.03 846 24.98 19.8 67.6 25 -0.5 31.1
18:05 1017 30.03 846 24.98 20.1 68.2 24 -0.9 30.4
18:10 1017 30.03 846 24.98 19.6 67.3 26 -0.1 31.8
18:15 1017 30.03 846 24.98 18.8 65.8 26 -0.8 30.6
18:20 1017 30.03 846 24.98 19 66.1 26 -0.9 30.3
18:25 1017 30.03 846 24.98 18.7 65.6 26 -0.9 30.5
18:30 1017 30.03 846 24.98 18.3 64.9 27 -1 30.3
18:35 1017 30.03 846 24.98 18.1 64.6 28 -0.6 30.9
18:40 1017 30.03 846 24.98 17.9 64.3 28 -0.8 30.6
18:45 1017 30.03 846 24.98 18 64.3 29 -0 32
18:50 1017 30.03 846 24.98 18 64.3 28 -0.8 30.5
18:55 1017 30.03 846 24.98 17.8 64 29 -0.5 31.1
19:00 1017 30.03 846 24.98 17.6 63.6 29 -0.4 31.2
19:05 1017 30.03 846 24.98 17.5 63.5 29 -0.6 30.9
19:10 1017 30.03 846 24.98 17.4 63.4 31 0.2 32.4
19:15 1017 30.03 846 24.98 17.5 63.6 30 -0.2 31.6
19:20 1017 30.03 846 24.98 17.4 63.4 31 0.3 32.5
19:25 1017 30.03 846 24.98 17.2 63 33 0.9 33.6
19:30 1017 30.03 846 24.98 16.9 62.5 33 0.5 32.9
19:35 1017 30.03 846 24.98 16.9 62.4 32 0.3 32.6
19:40 1017 30.03 846 24.98 16.8 62.2 36 1.7 35
19:45 1017 30.03 846 24.98 16.1 60.9 42 3.4 38.1
19:50 1017 30.03 846 24.98 14.9 58.9 45 3.1 37.6
19:55 1017 30.03 846 24.98 14.5 58 46 3.1 37.5
20:00 1017 30.03 846 24.98 14.3 57.7 43 2.1 35.8
20:05 1017 30.03 847 25.01 13.9 57.1 45 2.2 35.9
20:10 1017 30.03 847 25.01 13.6 56.4 45 1.9 35.4
20:15 1017 30.03 847 25.01 13.1 55.5 46 1.7 35.1
20:20 1017 30.03 847 25.01 12.9 55.2 51 3.1 37.6
20:25 1018 30.06 847 25.01 12.7 54.9 47 1.6 35
20:30 1018 30.06 847 25.01 12.3 54.2 46 1.2 34.1
20:35 1018 30.06 847 25.01 12.1 53.7 47 1.1 34.1
20:40 1018 30.06 847 25.01 11.8 53.2 48 1.3 34.3
20:45 1018 30.06 847 25.01 11.5 52.6 50 1.5 34.6
20:50 1018 30.06 847 25.01 11.1 52 50 1.1 33.9
20:55 1018 30.06 847 25.01 11 51.7 51 1.3 34.4
21:00 1018 30.06 847 25.01 10.7 51.3 51 1 33.8
21:05 1018 30.06 847 25.01 10.8 51.4 48 0.4 32.7
21:10 1018 30.06 847 25.01 11 51.8 47 0.3 32.5
21:15 1018 30.06 847 25.01 10.8 51.4 47 0.1 32.2
21:20 1018 30.06 847 25.01 10.6 51.1 48 0.1 32.2
21:25 1018 30.06 847 25.01 10.8 51.4 46 -0.3 31.4
21:30 1018 30.06 847 25.01 11.2 52.1 46 -0.1 31.9
21:35 1018 30.06 847 25.01 11 51.8 48 0.3 32.6
21:40 1018 30.06 847 25.01 11 51.7 46 -0.1 31.9
21:45 1018 30.06 847 25.01 11.1 51.9 47 0.2 32.3
21:50 1018 30.06 847 25.01 10.8 51.5 48 0.2 32.4
21:55 1018 30.06 847 25.01 10.6 51.1 48 0.2 32.3
22:00 1018 30.06 847 25.01 10.6 51.1 48 0 32
22:05 1018 30.06 847 25.01 10.8 51.4 47 -0.1 31.9
22:10 1018 30.06 847 25.01 11 51.7 45 -0.5 31.2
22:15 1018 30.06 847 25.01 11.2 52.1 45 -0.3 31.4
22:20 1018 30.06 847 25.01 11.4 52.5 43 -0.8 30.6
22:25 1018 30.06 847 25.01 11.7 53.1 42 -0.8 30.5
22:30 1018 30.06 848 25.04 11.6 53 43 -0.6 31
22:35 1019 30.09 848 25.04 11.5 52.6 43 -0.6 31
22:40 1019 30.09 848 25.04 11.4 52.5 43 -0.7 30.7
22:45 1019 30.09 848 25.04 11.2 52.1 43 -0.8 30.6
22:50 1019 30.09 848 25.04 10.9 51.5 45 -0.5 31.1
22:55 1019 30.09 848 25.04 10.6 51 46 -0.5 31.1
23:00 1019 30.09 848 25.04 10.6 51.1 46 -0.6 30.9
23:05 1019 30.09 848 25.04 10.5 51 46 -0.5 31.1
23:10 1019 30.09 848 25.04 10.4 50.7 47 -0.4 31.4
23:15 1019 30.09 848 25.04 10.4 50.8 48 -0.1 31.9
23:20 1019 30.09 848 25.04 10.2 50.3 47 -0.5 31.1
23:25 1019 30.09 848 25.04 10.3 50.6 46 -0.8 30.5
23:30 1019 30.09 848 25.04 10.4 50.6 45 -0.9 30.3
23:35 1019 30.09 848 25.04 10.4 50.7 47 -0.3 31.5
23:40 1019 30.09 848 25.04 9.7 49.5 48 -0.8 30.6
23:45 1019 30.09 848 25.04 9.7 49.4 49 -0.4 31.3
23:50 1019 30.09 848 25.04 9.5 49.2 48 -0.9 30.3
23:55 1019 30.09 848 25.04 9.9 49.8 46 -1.1 30
24:00 1019 30.09 848 25.04 9.9 49.8 47 -0.9 30.5